createdAt,value
2023-05-09T00:00:26.050Z,97798.91
2023-05-09T00:05:30.628Z,97801.00
2023-05-09T00:10:34.046Z,97795.19
2023-05-09T00:15:37.399Z,97788.91
2023-05-09T00:20:42.448Z,97796.00
2023-05-09T00:25:45.786Z,97788.41
2023-05-09T00:30:49.290Z,97784.16
2023-05-09T00:35:54.326Z,97782.22
2023-05-09T00:40:57.716Z,97782.41
2023-05-09T00:46:01.218Z,97773.31
2023-05-09T00:51:06.284Z,97760.13
2023-05-09T00:56:10.297Z,97755.91
2023-05-09T01:01:13.549Z,97751.97
2023-05-09T01:06:23.917Z,97740.78
2023-05-09T01:11:33.329Z,97735.84
2023-05-09T01:16:42.805Z,97741.41
2023-05-09T01:21:50.234Z,97731.97
2023-05-09T01:27:19.052Z,97735.47
2023-05-09T01:32:26.517Z,97727.69
2023-05-09T01:37:32.746Z,97730.13
2023-05-09T01:42:42.580Z,97723.63
2023-05-09T01:47:50.180Z,97722.06
2023-05-09T01:52:57.901Z,97718.22
2023-05-09T01:58:02.273Z,97718.28
2023-05-09T02:03:07.760Z,97710.41
2023-05-09T02:08:11.292Z,97705.59
2023-05-09T02:13:14.712Z,97705.91
2023-05-09T02:18:19.447Z,97709.16
2023-05-09T02:23:22.796Z,97706.91
2023-05-09T02:28:28.094Z,97709.06
2023-05-09T02:33:36.177Z,97708.78
2023-05-09T02:38:39.583Z,97713.22
2023-05-09T02:43:42.978Z,97714.47
2023-05-09T02:48:47.942Z,97709.50
2023-05-09T02:53:51.271Z,97699.25
2023-05-09T02:58:54.638Z,97698.09
2023-05-09T03:03:59.244Z,97713.13
2023-05-09T03:09:02.788Z,97709.16
2023-05-09T03:14:08.481Z,97702.56
2023-05-09T03:19:13.162Z,97706.59
2023-05-09T03:24:16.882Z,97700.69
2023-05-09T03:29:20.183Z,97695.06
2023-05-09T03:34:24.956Z,97696.28
2023-05-09T03:39:28.333Z,97684.75
2023-05-09T03:44:33.421Z,97680.91
2023-05-09T03:49:38.424Z,97679.75
2023-05-09T03:54:43.223Z,97671.91
2023-05-09T03:59:46.637Z,97676.22
2023-05-09T04:04:52.957Z,97675.31
2023-05-09T04:09:58.600Z,97674.53
2023-05-09T04:15:02.669Z,97673.34
2023-05-09T04:20:10.726Z,97687.31
2023-05-09T04:25:16.057Z,97678.56
2023-05-09T04:30:21.082Z,97671.72
2023-05-09T04:35:26.822Z,97670.28
2023-05-09T04:40:31.283Z,97663.88
2023-05-09T04:45:37.309Z,97669.97
2023-05-09T04:50:42.607Z,97667.00
2023-05-09T04:55:46.000Z,97660.09
2023-05-09T05:00:50.200Z,97659.66
2023-05-09T05:05:56.178Z,97660.56
2023-05-09T05:10:59.639Z,97649.97
2023-05-09T05:16:02.888Z,97648.63
2023-05-09T05:21:07.743Z,97638.09
2023-05-09T05:26:11.373Z,97631.19
2023-05-09T05:31:15.090Z,97625.47
2023-05-09T05:36:20.011Z,97616.00
2023-05-09T05:41:24.262Z,97619.59
2023-05-09T05:46:27.940Z,97618.50
2023-05-09T05:51:32.848Z,97605.44
2023-05-09T05:56:37.406Z,97604.50
2023-05-09T06:01:41.438Z,97597.94
2023-05-09T06:06:46.770Z,97586.78
2023-05-09T06:11:50.254Z,97586.38
2023-05-09T06:16:54.533Z,97587.63
2023-05-09T06:21:59.280Z,97572.47
2023-05-09T06:27:03.057Z,97566.28
2023-05-09T06:32:06.504Z,97560.94
2023-05-09T06:37:11.122Z,97555.44
2023-05-09T06:42:14.285Z,97548.47
2023-05-09T06:47:20.092Z,97547.22
2023-05-09T06:52:24.810Z,97536.47
2023-05-09T06:57:28.207Z,97531.72
2023-05-09T07:02:31.665Z,97526.03
2023-05-09T07:07:36.351Z,97532.88
2023-05-09T07:12:39.891Z,97537.59
2023-05-09T07:17:43.530Z,97541.78
2023-05-09T07:22:48.553Z,97525.72
2023-05-09T07:27:51.753Z,97529.28
2023-05-09T07:32:54.869Z,97523.19
2023-05-09T07:37:59.582Z,97514.75
2023-05-09T07:43:02.677Z,97510.13
2023-05-09T07:48:06.769Z,97504.44
2023-05-09T07:53:11.606Z,97489.34
2023-05-09T07:58:15.012Z,97488.47
2023-05-09T08:03:19.545Z,97485.47
2023-05-09T08:08:24.709Z,97465.72
2023-05-09T08:13:28.076Z,97477.00
2023-05-09T08:18:31.527Z,97469.94
2023-05-09T08:23:36.462Z,97472.19
2023-05-09T08:28:39.773Z,97460.97
2023-05-09T08:33:43.011Z,97451.56
2023-05-09T08:38:47.619Z,97442.00
2023-05-09T08:43:51.241Z,97422.03
2023-05-09T08:48:55.431Z,97420.91
2023-05-09T08:54:00.633Z,97422.22
2023-05-09T08:59:05.830Z,97404.97
2023-05-09T09:04:11.932Z,97398.66
2023-05-09T09:09:17.503Z,97390.59
2023-05-09T09:14:25.581Z,97381.34
2023-05-09T09:19:32.110Z,97377.81
2023-05-09T09:24:37.377Z,97371.63
2023-05-09T09:29:40.600Z,97365.56
2023-05-09T09:34:43.802Z,97360.56
2023-05-09T09:39:56.634Z,97349.09
2023-05-09T09:45:03.545Z,97352.03
2023-05-09T09:50:12.126Z,97339.94
2023-05-09T09:55:17.219Z,97326.88
2023-05-09T10:00:27.398Z,97322.38
2023-05-09T10:05:34.431Z,97315.34
2023-05-09T10:10:40.445Z,97306.13
2023-05-09T10:15:52.991Z,97296.72
2023-05-09T10:21:01.028Z,97293.44
2023-05-09T10:26:13.833Z,97293.84
2023-05-09T10:31:23.706Z,97291.19
2023-05-09T10:36:27.504Z,97282.72
2023-05-09T10:41:32.417Z,97277.56
2023-05-09T10:46:37.136Z,97263.28
2023-05-09T10:51:40.483Z,97237.59
2023-05-09T10:56:45.674Z,97230.16
2023-05-09T11:02:01.136Z,97226.94
2023-05-09T11:07:04.574Z,97214.22
2023-05-09T11:12:13.873Z,97200.03
2023-05-09T11:17:29.913Z,97179.50
2023-05-09T11:22:40.319Z,97179.38
2023-05-09T11:27:47.101Z,97171.03
2023-05-09T11:32:53.488Z,97163.41
2023-05-09T11:38:01.654Z,97161.28
2023-05-09T11:43:09.398Z,97159.13
2023-05-09T11:48:12.667Z,97145.81
2023-05-09T11:53:16.028Z,97138.72
2023-05-09T11:58:21.546Z,97125.84
2023-05-09T12:03:25.250Z,97109.28
2023-05-09T12:08:30.277Z,97103.22
2023-05-09T12:13:35.465Z,97104.50
2023-05-09T12:18:38.732Z,97095.31
2023-05-09T12:23:42.535Z,97081.22
2023-05-09T12:28:49.076Z,97068.53
2023-05-09T12:33:52.987Z,97075.31
2023-05-09T12:38:57.035Z,97062.44
2023-05-09T12:44:02.058Z,97055.53
2023-05-09T12:49:05.458Z,97044.84
2023-05-09T12:54:11.097Z,97047.91
2023-05-09T12:59:22.763Z,97042.03
2023-05-09T13:04:27.691Z,97024.63
2023-05-09T13:09:31.601Z,97031.91
2023-05-09T13:14:36.251Z,97018.19
2023-05-09T13:19:40.052Z,97011.97
2023-05-09T13:24:43.321Z,97003.03
2023-05-09T13:29:48.118Z,96987.91
2023-05-09T13:34:51.466Z,96981.34
2023-05-09T13:39:55.023Z,96962.97
2023-05-09T13:44:59.936Z,96951.06
2023-05-09T13:50:03.535Z,96946.72
2023-05-09T13:55:07.549Z,96942.75
2023-05-09T14:00:15.699Z,96935.34
2023-05-09T14:05:19.230Z,96935.31
2023-05-09T14:10:22.812Z,96925.41
2023-05-09T14:15:27.490Z,96919.53
2023-05-09T14:20:30.826Z,96915.38
2023-05-09T14:25:34.272Z,96919.50
2023-05-09T14:30:39.265Z,96896.38
2023-05-09T14:35:42.673Z,96898.19
2023-05-09T14:40:46.084Z,96895.84
2023-05-09T14:45:50.890Z,96881.28
2023-05-09T14:50:56.905Z,96868.41
2023-05-09T14:56:00.857Z,96869.88
2023-05-09T15:01:05.607Z,96857.56
2023-05-09T15:06:09.014Z,96846.53
2023-05-09T15:11:12.600Z,96845.06
2023-05-09T15:16:17.402Z,96848.72
2023-05-09T15:21:20.777Z,96839.94
2023-05-09T15:26:24.269Z,96837.09
2023-05-09T15:31:33.156Z,96830.19
2023-05-09T15:36:36.563Z,96823.47
2023-05-09T15:41:40.157Z,96810.38
2023-05-09T15:46:45.086Z,96804.75
2023-05-09T15:51:48.370Z,96806.94
2023-05-09T15:56:51.628Z,96800.00
2023-05-09T16:01:56.653Z,96792.09
2023-05-09T16:07:01.771Z,96788.06
2023-05-09T16:12:05.861Z,96785.00
2023-05-09T16:17:10.559Z,96772.44
2023-05-09T16:22:14.190Z,96769.06
2023-05-09T16:27:17.535Z,96761.84
2023-05-09T16:32:22.295Z,96755.34
2023-05-09T16:37:25.706Z,96751.25
2023-05-09T16:42:29.045Z,96750.66
2023-05-09T16:47:33.749Z,96748.59
2023-05-09T16:52:37.106Z,96734.00
2023-05-09T16:57:40.532Z,96734.25
2023-05-09T17:02:45.365Z,96731.81
2023-05-09T17:07:48.800Z,96722.97
2023-05-09T17:12:52.801Z,96717.81
2023-05-09T17:17:57.545Z,96719.19
2023-05-09T17:23:01.127Z,96711.66
2023-05-09T17:28:04.540Z,96715.28
2023-05-09T17:33:09.374Z,96709.88
2023-05-09T17:38:15.496Z,96715.25
2023-05-09T17:43:18.785Z,96715.88
2023-05-09T17:48:23.516Z,96715.25
2023-05-09T17:53:26.872Z,96708.59
2023-05-09T17:58:30.583Z,96709.28
2023-05-09T18:03:35.654Z,96706.81
2023-05-09T18:08:39.091Z,96721.91
2023-05-09T18:13:42.503Z,96714.78
2023-05-09T18:18:47.197Z,96724.16
2023-05-09T18:23:50.401Z,96740.47
2023-05-09T18:28:53.708Z,96730.50
2023-05-09T18:33:58.464Z,96735.69
2023-05-09T18:39:02.936Z,96748.34
2023-05-09T18:44:07.193Z,96752.13
2023-05-09T18:49:13.188Z,96754.41
2023-05-09T18:54:19.096Z,96750.19
2023-05-09T18:59:23.641Z,96742.06
2023-05-09T19:04:28.937Z,96726.00
2023-05-09T19:09:33.015Z,96721.25
2023-05-09T19:14:37.845Z,96715.19
2023-05-09T19:19:43.010Z,96727.22
2023-05-09T19:24:46.692Z,96715.56
2023-05-09T19:29:50.375Z,96712.91
2023-05-09T19:34:55.371Z,96715.59
2023-05-09T19:39:58.831Z,96720.06
2023-05-09T19:45:02.452Z,96711.88
2023-05-09T19:50:09.130Z,96718.38
2023-05-09T19:55:12.661Z,96713.09
2023-05-09T20:00:16.770Z,96719.28
2023-05-09T20:05:28.997Z,96719.13
2023-05-09T20:10:34.452Z,96715.28
2023-05-09T20:15:38.897Z,96710.09
2023-05-09T20:20:45.851Z,96709.28
2023-05-09T20:25:49.234Z,96714.84
2023-05-09T20:30:54.300Z,96709.97
2023-05-09T20:36:01.377Z,96704.97
2023-05-09T20:41:15.432Z,96706.84
2023-05-09T20:46:22.274Z,96708.53
2023-05-09T20:51:27.064Z,96709.91
2023-05-09T20:56:30.451Z,96707.09
2023-05-09T21:01:36.666Z,96702.31
2023-05-09T21:06:41.404Z,96697.00
2023-05-09T21:11:45.893Z,96697.38
2023-05-09T21:16:49.180Z,96692.66
2023-05-09T21:21:54.038Z,96693.72
2023-05-09T21:26:58.127Z,96691.13
2023-05-09T21:32:01.475Z,96677.22
2023-05-09T21:37:06.281Z,96680.25
2023-05-09T21:42:10.051Z,96674.97
2023-05-09T21:47:13.495Z,96667.56
2023-05-09T21:52:19.355Z,96661.28
2023-05-09T21:57:22.739Z,96662.25
2023-05-09T22:02:26.109Z,96661.28
2023-05-09T22:07:30.772Z,96655.47
2023-05-09T22:12:34.128Z,96654.81
2023-05-09T22:17:37.741Z,96647.53
2023-05-09T22:22:42.449Z,96641.16
2023-05-09T22:27:45.682Z,96644.78
2023-05-09T22:32:48.867Z,96639.47
2023-05-09T22:37:53.712Z,96637.25
2023-05-09T22:42:56.894Z,96626.41
2023-05-09T22:48:00.148Z,96621.50
2023-05-09T22:53:04.898Z,96615.53
2023-05-09T22:58:08.452Z,96625.72
2023-05-09T23:03:11.792Z,96628.75
2023-05-09T23:08:16.527Z,96623.91
2023-05-09T23:13:19.735Z,96619.56
2023-05-09T23:18:23.941Z,96614.06
2023-05-09T23:23:28.850Z,96611.66
2023-05-09T23:28:32.113Z,96604.38
2023-05-09T23:33:35.491Z,96601.09
2023-05-09T23:38:40.117Z,96601.03
2023-05-09T23:43:43.452Z,96583.66
2023-05-09T23:48:46.899Z,96582.25
2023-05-09T23:53:51.626Z,96569.44
2023-05-09T23:58:55.184Z,96565.31
